sensor_id;sensor_type;location;lat;lon;timestamp;pressure;altitude;pressure_sealevel;temperature;humidity
15529;BME280;7866;52.280;9.500;2022-12-29T00:02:35;99077.63;;;9.00;97.17
15529;BME280;7866;52.280;9.500;2022-12-29T00:07:37;99074.19;;;9.06;96.88
15529;BME280;7866;52.280;9.500;2022-12-29T00:12:40;99074.56;;;9.03;96.17
15529;BME280;7866;52.280;9.500;2022-12-29T00:17:59;99073.63;;;9.11;95.55
15529;BME280;7866;52.280;9.500;2022-12-29T00:23:00;99072.50;;;9.05;95.54
15529;BME280;7866;52.280;9.500;2022-12-29T00:28:21;99069.72;;;9.13;95.65
15529;BME280;7866;52.280;9.500;2022-12-29T00:33:41;99066.44;;;9.11;95.27
15529;BME280;7866;52.280;9.500;2022-12-29T00:39:02;99068.97;;;9.20;95.40
15529;BME280;7866;52.280;9.500;2022-12-29T00:44:22;99064.44;;;9.20;94.97
15529;BME280;7866;52.280;9.500;2022-12-29T00:49:24;99055.00;;;9.18;95.07
15529;BME280;7866;52.280;9.500;2022-12-29T00:54:33;99059.56;;;9.24;95.42
15529;BME280;7866;52.280;9.500;2022-12-29T00:59:36;99036.16;;;9.26;95.43
15529;BME280;7866;52.280;9.500;2022-12-29T01:04:38;99036.56;;;9.29;95.51
15529;BME280;7866;52.280;9.500;2022-12-29T01:09:40;99024.06;;;9.30;95.62
15529;BME280;7866;52.280;9.500;2022-12-29T01:15:00;99010.06;;;9.28;95.46
15529;BME280;7866;52.280;9.500;2022-12-29T01:20:03;99004.13;;;9.32;96.32
15529;BME280;7866;52.280;9.500;2022-12-29T01:25:06;98999.44;;;9.34;95.47
15529;BME280;7866;52.280;9.500;2022-12-29T01:30:10;98995.94;;;9.34;95.63
15529;BME280;7866;52.280;9.500;2022-12-29T01:35:12;98994.56;;;9.45;95.67
15529;BME280;7866;52.280;9.500;2022-12-29T01:40:13;98974.84;;;9.46;95.48
15529;BME280;7866;52.280;9.500;2022-12-29T01:45:17;98982.88;;;9.46;95.85
15529;BME280;7866;52.280;9.500;2022-12-29T01:50:24;98993.34;;;9.47;95.37
15529;BME280;7866;52.280;9.500;2022-12-29T01:55:29;98979.03;;;9.55;95.98
15529;BME280;7866;52.280;9.500;2022-12-29T02:00:33;98967.53;;;9.61;94.86
15529;BME280;7866;52.280;9.500;2022-12-29T02:05:38;98966.53;;;9.62;94.37
15529;BME280;7866;52.280;9.500;2022-12-29T02:10:42;98962.88;;;9.70;94.09
15529;BME280;7866;52.280;9.500;2022-12-29T02:15:56;98953.44;;;9.74;93.52
15529;BME280;7866;52.280;9.500;2022-12-29T02:26:45;98957.75;;;9.75;93.13
15529;BME280;7866;52.280;9.500;2022-12-29T02:31:55;98951.41;;;9.82;94.22
15529;BME280;7866;52.280;9.500;2022-12-29T02:37:04;98955.13;;;9.81;94.24
15529;BME280;7866;52.280;9.500;2022-12-29T02:42:16;98953.50;;;9.87;95.01
15529;BME280;7866;52.280;9.500;2022-12-29T02:47:28;98944.88;;;9.92;94.82
15529;BME280;7866;52.280;9.500;2022-12-29T02:52:35;98932.13;;;9.94;95.20
15529;BME280;7866;52.280;9.500;2022-12-29T02:57:40;98929.63;;;9.92;95.08
15529;BME280;7866;52.280;9.500;2022-12-29T03:03:06;98928.00;;;9.91;96.89
15529;BME280;7866;52.280;9.500;2022-12-29T03:08:19;98930.69;;;9.91;96.97
15529;BME280;7866;52.280;9.500;2022-12-29T03:13:28;98914.00;;;9.89;97.12
15529;BME280;7866;52.280;9.500;2022-12-29T03:18:58;98892.84;;;9.94;97.30
15529;BME280;7866;52.280;9.500;2022-12-29T03:24:03;98891.19;;;10.00;96.87
15529;BME280;7866;52.280;9.500;2022-12-29T03:29:05;98870.88;;;10.12;96.03
15529;BME280;7866;52.280;9.500;2022-12-29T03:34:11;98879.94;;;10.18;95.21
15529;BME280;7866;52.280;9.500;2022-12-29T03:39:14;98883.06;;;10.28;94.46
15529;BME280;7866;52.280;9.500;2022-12-29T03:44:18;98854.28;;;10.30;94.05
15529;BME280;7866;52.280;9.500;2022-12-29T03:49:21;98852.63;;;10.42;92.49
15529;BME280;7866;52.280;9.500;2022-12-29T03:54:22;98847.50;;;10.47;92.35
15529;BME280;7866;52.280;9.500;2022-12-29T03:59:24;98853.88;;;10.59;91.60
15529;BME280;7866;52.280;9.500;2022-12-29T04:04:27;98847.28;;;10.62;91.21
15529;BME280;7866;52.280;9.500;2022-12-29T04:09:29;98866.00;;;10.69;90.33
15529;BME280;7866;52.280;9.500;2022-12-29T04:14:31;98862.34;;;10.70;90.29
15529;BME280;7866;52.280;9.500;2022-12-29T04:19:34;98858.00;;;10.75;89.91
15529;BME280;7866;52.280;9.500;2022-12-29T04:24:36;98855.31;;;10.75;90.48
15529;BME280;7866;52.280;9.500;2022-12-29T04:29:37;98858.59;;;10.91;89.44
15529;BME280;7866;52.280;9.500;2022-12-29T04:34:40;98859.00;;;10.88;88.95
15529;BME280;7866;52.280;9.500;2022-12-29T04:39:42;98859.41;;;10.91;88.90
15529;BME280;7866;52.280;9.500;2022-12-29T04:44:43;98847.66;;;10.99;87.93
15529;BME280;7866;52.280;9.500;2022-12-29T04:49:46;98854.03;;;11.04;87.78
15529;BME280;7866;52.280;9.500;2022-12-29T04:54:48;98847.44;;;11.07;86.77
15529;BME280;7866;52.280;9.500;2022-12-29T04:59:49;98836.31;;;10.97;86.72
15529;BME280;7866;52.280;9.500;2022-12-29T05:04:52;98836.09;;;11.12;86.16
15529;BME280;7866;52.280;9.500;2022-12-29T05:09:54;98853.63;;;11.01;86.59
15529;BME280;7866;52.280;9.500;2022-12-29T05:14:56;98836.72;;;11.14;86.42
15529;BME280;7866;52.280;9.500;2022-12-29T05:19:59;98840.81;;;11.23;85.48
15529;BME280;7866;52.280;9.500;2022-12-29T05:25:00;98836.28;;;11.30;84.85
15529;BME280;7866;52.280;9.500;2022-12-29T05:30:02;98839.75;;;11.37;84.38
15529;BME280;7866;52.280;9.500;2022-12-29T05:35:06;98836.44;;;11.35;84.69
15529;BME280;7866;52.280;9.500;2022-12-29T05:40:09;98843.91;;;11.20;85.35
15529;BME280;7866;52.280;9.500;2022-12-29T05:45:11;98836.50;;;11.08;87.38
15529;BME280;7866;52.280;9.500;2022-12-29T05:50:14;98836.97;;;11.05;87.60
15529;BME280;7866;52.280;9.500;2022-12-29T05:55:16;98841.47;;;11.12;87.54
15529;BME280;7866;52.280;9.500;2022-12-29T06:00:18;98852.81;;;11.00;88.23
15529;BME280;7866;52.280;9.500;2022-12-29T06:05:20;98841.53;;;10.78;90.35
15529;BME280;7866;52.280;9.500;2022-12-29T06:10:22;98832.47;;;10.66;91.93
15529;BME280;7866;52.280;9.500;2022-12-29T06:15:24;98828.13;;;10.58;92.66
15529;BME280;7866;52.280;9.500;2022-12-29T06:20:27;98812.25;;;10.57;93.90
15529;BME280;7866;52.280;9.500;2022-12-29T06:25:28;98800.56;;;10.58;94.27
15529;BME280;7866;52.280;9.500;2022-12-29T06:30:32;98796.81;;;10.52;95.08
15529;BME280;7866;52.280;9.500;2022-12-29T06:35:35;98787.34;;;10.56;95.35
15529;BME280;7866;52.280;9.500;2022-12-29T06:40:37;98786.53;;;10.63;95.35
15529;BME280;7866;52.280;9.500;2022-12-29T06:45:39;98792.91;;;10.75;94.43
15529;BME280;7866;52.280;9.500;2022-12-29T06:50:42;98793.94;;;10.74;93.15
15529;BME280;7866;52.280;9.500;2022-12-29T06:55:44;98792.47;;;10.84;92.86
15529;BME280;7866;52.280;9.500;2022-12-29T07:00:45;98798.84;;;10.90;91.74
15529;BME280;7866;52.280;9.500;2022-12-29T07:05:48;98799.03;;;10.95;90.69
15529;BME280;7866;52.280;9.500;2022-12-29T07:10:50;98814.47;;;11.06;90.17
15529;BME280;7866;52.280;9.500;2022-12-29T07:15:51;98832.19;;;11.14;89.25
15529;BME280;7866;52.280;9.500;2022-12-29T07:20:54;98889.50;;;11.13;89.82
15529;BME280;7866;52.280;9.500;2022-12-29T07:26:00;98913.59;;;10.80;91.58
15529;BME280;7866;52.280;9.500;2022-12-29T07:31:02;98907.41;;;10.53;94.73
15529;BME280;7866;52.280;9.500;2022-12-29T07:36:06;98918.31;;;10.38;94.81
15529;BME280;7866;52.280;9.500;2022-12-29T07:41:08;98924.84;;;10.29;95.55
15529;BME280;7866;52.280;9.500;2022-12-29T07:46:10;98921.34;;;10.28;94.83
15529;BME280;7866;52.280;9.500;2022-12-29T07:51:13;98913.25;;;10.08;95.39
15529;BME280;7866;52.280;9.500;2022-12-29T07:56:14;98919.84;;;10.12;94.86
15529;BME280;7866;52.280;9.500;2022-12-29T08:01:16;98916.84;;;9.81;95.58
15529;BME280;7866;52.280;9.500;2022-12-29T08:06:19;98939.28;;;9.86;96.79
15529;BME280;7866;52.280;9.500;2022-12-29T08:11:23;98942.88;;;10.07;96.86
15529;BME280;7866;52.280;9.500;2022-12-29T08:16:25;98945.03;;;10.31;93.71
15529;BME280;7866;52.280;9.500;2022-12-29T08:21:28;98938.06;;;10.44;90.53
15529;BME280;7866;52.280;9.500;2022-12-29T08:26:29;98953.09;;;10.38;89.02
15529;BME280;7866;52.280;9.500;2022-12-29T08:31:31;98952.06;;;10.39;89.23
15529;BME280;7866;52.280;9.500;2022-12-29T08:36:34;98957.00;;;10.42;89.22
15529;BME280;7866;52.280;9.500;2022-12-29T08:41:36;98965.91;;;10.49;88.21
15529;BME280;7866;52.280;9.500;2022-12-29T08:46:37;98966.28;;;10.46;88.24
15529;BME280;7866;52.280;9.500;2022-12-29T08:51:40;98987.88;;;10.45;88.51
15529;BME280;7866;52.280;9.500;2022-12-29T08:56:42;98978.69;;;10.12;89.49
15529;BME280;7866;52.280;9.500;2022-12-29T09:01:43;98991.88;;;10.14;91.41
15529;BME280;7866;52.280;9.500;2022-12-29T09:06:46;98976.66;;;10.21;91.33
15529;BME280;7866;52.280;9.500;2022-12-29T09:11:48;98984.47;;;10.16;90.88
15529;BME280;7866;52.280;9.500;2022-12-29T09:16:51;98992.19;;;10.39;90.16
15529;BME280;7866;52.280;9.500;2022-12-29T09:22:11;98984.00;;;10.47;89.67
15529;BME280;7866;52.280;9.500;2022-12-29T09:27:13;98978.84;;;10.52;88.65
15529;BME280;7866;52.280;9.500;2022-12-29T09:32:14;98977.41;;;10.56;88.61
15529;BME280;7866;52.280;9.500;2022-12-29T09:37:17;98979.88;;;10.51;89.98
15529;BME280;7866;52.280;9.500;2022-12-29T09:42:23;98997.41;;;10.54;89.12
15529;BME280;7866;52.280;9.500;2022-12-29T09:47:28;98997.94;;;10.36;90.72
15529;BME280;7866;52.280;9.500;2022-12-29T09:52:34;99010.63;;;10.21;92.25
15529;BME280;7866;52.280;9.500;2022-12-29T09:57:41;99010.63;;;10.21;93.07
15529;BME280;7866;52.280;9.500;2022-12-29T10:02:48;99003.84;;;10.18;94.39
15529;BME280;7866;52.280;9.500;2022-12-29T10:08:01;99007.88;;;10.07;94.06
15529;BME280;7866;52.280;9.500;2022-12-29T10:13:14;98995.78;;;10.11;94.11
15529;BME280;7866;52.280;9.500;2022-12-29T10:18:28;99012.06;;;10.23;93.93
15529;BME280;7866;52.280;9.500;2022-12-29T10:23:39;98999.31;;;10.19;93.27
15529;BME280;7866;52.280;9.500;2022-12-29T10:28:43;98995.91;;;10.38;93.05
15529;BME280;7866;52.280;9.500;2022-12-29T10:33:50;98988.72;;;10.39;91.84
15529;BME280;7866;52.280;9.500;2022-12-29T10:39:05;98985.81;;;10.40;90.99
15529;BME280;7866;52.280;9.500;2022-12-29T10:44:11;98972.50;;;10.53;88.88
15529;BME280;7866;52.280;9.500;2022-12-29T10:49:17;98975.16;;;10.53;88.63
15529;BME280;7866;52.280;9.500;2022-12-29T10:54:25;98983.00;;;10.62;86.62
15529;BME280;7866;52.280;9.500;2022-12-29T10:59:30;98985.88;;;10.53;85.79
15529;BME280;7866;52.280;9.500;2022-12-29T11:04:43;98990.63;;;10.65;85.74
15529;BME280;7866;52.280;9.500;2022-12-29T11:09:49;98981.75;;;10.51;85.38
15529;BME280;7866;52.280;9.500;2022-12-29T11:15:12;98982.97;;;10.48;85.92
15529;BME280;7866;52.280;9.500;2022-12-29T11:20:33;98979.47;;;10.61;85.36
15529;BME280;7866;52.280;9.500;2022-12-29T11:25:37;98971.06;;;10.84;84.48
15529;BME280;7866;52.280;9.500;2022-12-29T11:30:39;98979.13;;;10.84;82.54
15529;BME280;7866;52.280;9.500;2022-12-29T11:35:42;98985.31;;;11.04;82.42
15529;BME280;7866;52.280;9.500;2022-12-29T11:40:45;98973.16;;;11.15;81.60
15529;BME280;7866;52.280;9.500;2022-12-29T11:45:47;98982.00;;;11.09;79.69
15529;BME280;7866;52.280;9.500;2022-12-29T11:50:52;98996.44;;;11.15;78.54
15529;BME280;7866;52.280;9.500;2022-12-29T11:55:57;98997.47;;;11.20;78.60
15529;BME280;7866;52.280;9.500;2022-12-29T12:01:02;98993.97;;;11.26;76.48
15529;BME280;7866;52.280;9.500;2022-12-29T12:06:11;99000.16;;;11.27;75.36
15529;BME280;7866;52.280;9.500;2022-12-29T12:11:19;99006.53;;;11.32;76.43
15529;BME280;7866;52.280;9.500;2022-12-29T12:16:25;98992.94;;;11.27;78.35
15529;BME280;7866;52.280;9.500;2022-12-29T12:21:32;99002.22;;;11.18;77.41
15529;BME280;7866;52.280;9.500;2022-12-29T12:26:42;98995.44;;;11.22;76.76
15529;BME280;7866;52.280;9.500;2022-12-29T12:31:51;98967.81;;;11.22;77.02
15529;BME280;7866;52.280;9.500;2022-12-29T12:37:12;98996.25;;;11.29;76.75
15529;BME280;7866;52.280;9.500;2022-12-29T12:42:27;98991.50;;;11.38;75.92
15529;BME280;7866;52.280;9.500;2022-12-29T12:47:50;98992.53;;;11.30;74.85
15529;BME280;7866;52.280;9.500;2022-12-29T12:53:29;99008.63;;;11.37;73.75
15529;BME280;7866;52.280;9.500;2022-12-29T12:58:43;98993.56;;;11.36;74.64
15529;BME280;7866;52.280;9.500;2022-12-29T13:04:03;99028.41;;;11.43;73.14
15529;BME280;7866;52.280;9.500;2022-12-29T13:09:18;99018.91;;;11.47;73.35
15529;BME280;7866;52.280;9.500;2022-12-29T13:14:36;99015.41;;;11.46;72.75
15529;BME280;7866;52.280;9.500;2022-12-29T13:19:42;99026.53;;;11.43;73.64
15529;BME280;7866;52.280;9.500;2022-12-29T13:25:08;99031.31;;;11.41;72.81
15529;BME280;7866;52.280;9.500;2022-12-29T13:30:19;99042.84;;;11.42;73.10
15529;BME280;7866;52.280;9.500;2022-12-29T13:35:41;99068.81;;;11.48;72.78
15529;BME280;7866;52.280;9.500;2022-12-29T13:40:50;99069.22;;;11.51;71.59
15529;BME280;7866;52.280;9.500;2022-12-29T13:45:59;99072.31;;;11.35;71.36
15529;BME280;7866;52.280;9.500;2022-12-29T13:51:01;99079.53;;;11.48;71.80
15529;BME280;7866;52.280;9.500;2022-12-29T13:56:06;99102.22;;;11.32;72.49
15529;BME280;7866;52.280;9.500;2022-12-29T14:01:15;99110.50;;;11.37;72.71
15529;BME280;7866;52.280;9.500;2022-12-29T14:06:23;99129.41;;;11.29;73.13
15529;BME280;7866;52.280;9.500;2022-12-29T14:11:30;99133.78;;;11.30;71.93
15529;BME280;7866;52.280;9.500;2022-12-29T14:16:34;99142.63;;;11.30;72.92
15529;BME280;7866;52.280;9.500;2022-12-29T14:21:36;99165.94;;;11.30;72.79
15529;BME280;7866;52.280;9.500;2022-12-29T14:26:38;99165.09;;;11.29;73.71
15529;BME280;7866;52.280;9.500;2022-12-29T14:31:41;99175.16;;;11.21;73.30
15529;BME280;7866;52.280;9.500;2022-12-29T14:36:53;99185.47;;;11.24;71.13
15529;BME280;7866;52.280;9.500;2022-12-29T14:41:59;99188.81;;;11.26;72.33
15529;BME280;7866;52.280;9.500;2022-12-29T14:47:05;99204.25;;;11.24;73.17
15529;BME280;7866;52.280;9.500;2022-12-29T14:52:17;99202.78;;;11.15;71.81
15529;BME280;7866;52.280;9.500;2022-12-29T14:57:25;99203.56;;;11.02;73.01
15529;BME280;7866;52.280;9.500;2022-12-29T15:02:34;99217.56;;;11.04;73.13
15529;BME280;7866;52.280;9.500;2022-12-29T15:07:38;99208.63;;;10.83;73.25
15529;BME280;7866;52.280;9.500;2022-12-29T15:12:43;99220.16;;;10.84;73.43
15529;BME280;7866;52.280;9.500;2022-12-29T15:17:49;99223.22;;;10.81;74.71
15529;BME280;7866;52.280;9.500;2022-12-29T15:22:55;99221.75;;;10.72;73.98
15529;BME280;7866;52.280;9.500;2022-12-29T15:28:01;99232.22;;;10.67;74.36
15529;BME280;7866;52.280;9.500;2022-12-29T15:33:17;99227.84;;;10.59;74.36
15529;BME280;7866;52.280;9.500;2022-12-29T15:38:22;99254.03;;;10.64;74.59
15529;BME280;7866;52.280;9.500;2022-12-29T15:43:35;99254.25;;;10.62;75.77
15529;BME280;7866;52.280;9.500;2022-12-29T15:48:40;99259.59;;;10.62;76.36
15529;BME280;7866;52.280;9.500;2022-12-29T15:53:46;99258.91;;;10.53;76.25
15529;BME280;7866;52.280;9.500;2022-12-29T15:58:50;99283.34;;;10.44;76.60
15529;BME280;7866;52.280;9.500;2022-12-29T16:03:54;99278.50;;;10.32;77.89
15529;BME280;7866;52.280;9.500;2022-12-29T16:08:59;99282.69;;;10.20;79.29
15529;BME280;7866;52.280;9.500;2022-12-29T16:14:07;99278.59;;;10.18;80.21
15529;BME280;7866;52.280;9.500;2022-12-29T16:19:25;99284.47;;;10.13;80.08
15529;BME280;7866;52.280;9.500;2022-12-29T16:24:31;99280.53;;;10.09;80.83
15529;BME280;7866;52.280;9.500;2022-12-29T16:29:34;99282.53;;;10.00;80.94
15529;BME280;7866;52.280;9.500;2022-12-29T16:34:43;99288.06;;;9.99;81.52
15529;BME280;7866;52.280;9.500;2022-12-29T16:39:45;99282.34;;;10.02;80.96
15529;BME280;7866;52.280;9.500;2022-12-29T16:44:47;99283.63;;;10.06;80.20
15529;BME280;7866;52.280;9.500;2022-12-29T16:49:52;99278.38;;;10.19;79.08
15529;BME280;7866;52.280;9.500;2022-12-29T16:54:56;99289.91;;;10.20;78.73
15529;BME280;7866;52.280;9.500;2022-12-29T17:00:00;99272.00;;;10.20;78.52
15529;BME280;7866;52.280;9.500;2022-12-29T17:05:04;99268.78;;;10.25;77.69
15529;BME280;7866;52.280;9.500;2022-12-29T17:10:06;99274.78;;;10.27;77.49
15529;BME280;7866;52.280;9.500;2022-12-29T17:15:11;99278.59;;;10.18;77.36
15529;BME280;7866;52.280;9.500;2022-12-29T17:20:19;99266.59;;;10.14;77.59
15529;BME280;7866;52.280;9.500;2022-12-29T17:25:23;99264.31;;;10.10;77.39
15529;BME280;7866;52.280;9.500;2022-12-29T17:30:28;99274.81;;;10.12;77.85
15529;BME280;7866;52.280;9.500;2022-12-29T17:35:32;99270.16;;;9.99;77.84
15529;BME280;7866;52.280;9.500;2022-12-29T17:40:35;99268.00;;;9.88;78.55
15529;BME280;7866;52.280;9.500;2022-12-29T17:45:38;99264.25;;;9.82;78.62
15529;BME280;7866;52.280;9.500;2022-12-29T17:50:42;99262.84;;;9.86;78.04
15529;BME280;7866;52.280;9.500;2022-12-29T17:55:44;99259.41;;;9.93;77.42
15529;BME280;7866;52.280;9.500;2022-12-29T18:00:46;99280.63;;;9.94;77.13
15529;BME280;7866;52.280;9.500;2022-12-29T18:05:50;99285.84;;;10.02;77.20
15529;BME280;7866;52.280;9.500;2022-12-29T18:10:53;99285.34;;;10.14;75.52
15529;BME280;7866;52.280;9.500;2022-12-29T18:15:55;99314.09;;;10.26;75.13
15529;BME280;7866;52.280;9.500;2022-12-29T18:20:59;99335.28;;;10.06;76.82
15529;BME280;7866;52.280;9.500;2022-12-29T18:26:02;99358.25;;;9.65;80.32
15529;BME280;7866;52.280;9.500;2022-12-29T18:31:15;99353.41;;;9.24;84.34
15529;BME280;7866;52.280;9.500;2022-12-29T18:36:18;99341.59;;;8.88;86.59
15529;BME280;7866;52.280;9.500;2022-12-29T18:41:22;99337.47;;;8.86;86.62
15529;BME280;7866;52.280;9.500;2022-12-29T18:46:24;99334.50;;;8.81;87.03
15529;BME280;7866;52.280;9.500;2022-12-29T18:51:27;99338.47;;;8.85;86.73
15529;BME280;7866;52.280;9.500;2022-12-29T18:56:29;99333.69;;;8.80;87.30
15529;BME280;7866;52.280;9.500;2022-12-29T19:01:30;99335.78;;;8.85;87.67
15529;BME280;7866;52.280;9.500;2022-12-29T19:06:33;99339.94;;;8.87;86.95
15529;BME280;7866;52.280;9.500;2022-12-29T19:11:35;99338.50;;;9.00;86.28
15529;BME280;7866;52.280;9.500;2022-12-29T19:16:37;99346.78;;;9.05;85.38
15529;BME280;7866;52.280;9.500;2022-12-29T19:21:40;99349.19;;;9.15;83.35
15529;BME280;7866;52.280;9.500;2022-12-29T19:26:41;99343.91;;;9.21;82.01
15529;BME280;7866;52.280;9.500;2022-12-29T19:31:43;99352.94;;;9.20;81.05
15529;BME280;7866;52.280;9.500;2022-12-29T19:36:46;99353.31;;;9.17;80.69
15529;BME280;7866;52.280;9.500;2022-12-29T19:41:48;99359.50;;;9.18;79.90
15529;BME280;7866;52.280;9.500;2022-12-29T19:46:49;99372.78;;;9.26;79.27
15529;BME280;7866;52.280;9.500;2022-12-29T19:51:52;99371.75;;;9.27;79.12
15529;BME280;7866;52.280;9.500;2022-12-29T19:56:54;99372.78;;;9.26;78.61
15529;BME280;7866;52.280;9.500;2022-12-29T20:01:56;99383.16;;;9.21;77.75
15529;BME280;7866;52.280;9.500;2022-12-29T20:07:00;99391.09;;;9.14;76.83
15529;BME280;7866;52.280;9.500;2022-12-29T20:12:02;99401.19;;;9.04;76.28
15529;BME280;7866;52.280;9.500;2022-12-29T20:17:03;99409.28;;;8.96;77.07
15529;BME280;7866;52.280;9.500;2022-12-29T20:22:08;99419.78;;;8.97;76.86
15529;BME280;7866;52.280;9.500;2022-12-29T20:27:12;99433.28;;;8.81;76.91
15529;BME280;7866;52.280;9.500;2022-12-29T20:32:15;99424.44;;;8.80;76.76
15529;BME280;7866;52.280;9.500;2022-12-29T20:37:20;99417.94;;;8.83;76.64
15529;BME280;7866;52.280;9.500;2022-12-29T20:42:22;99429.84;;;8.72;77.21
15529;BME280;7866;52.280;9.500;2022-12-29T20:47:23;99432.72;;;8.71;77.97
15529;BME280;7866;52.280;9.500;2022-12-29T20:52:26;99440.59;;;8.64;78.21
15529;BME280;7866;52.280;9.500;2022-12-29T20:57:28;99452.09;;;8.64;78.40
15529;BME280;7866;52.280;9.500;2022-12-29T21:02:30;99458.25;;;8.65;78.71
15529;BME280;7866;52.280;9.500;2022-12-29T21:07:33;99466.06;;;8.75;78.55
15529;BME280;7866;52.280;9.500;2022-12-29T21:12:34;99463.91;;;8.70;78.30
15529;BME280;7866;52.280;9.500;2022-12-29T21:17:36;99464.84;;;8.77;78.19
15529;BME280;7866;52.280;9.500;2022-12-29T21:22:39;99472.84;;;8.77;78.16
15529;BME280;7866;52.280;9.500;2022-12-29T21:27:41;99476.41;;;8.70;78.25
15529;BME280;7866;52.280;9.500;2022-12-29T21:32:44;99484.19;;;8.79;77.74
15529;BME280;7866;52.280;9.500;2022-12-29T21:37:47;99494.22;;;8.77;77.53
15529;BME280;7866;52.280;9.500;2022-12-29T21:42:48;99499.75;;;8.76;78.30
15529;BME280;7866;52.280;9.500;2022-12-29T21:47:50;99495.56;;;8.73;77.81
15529;BME280;7866;52.280;9.500;2022-12-29T21:53:11;99520.66;;;8.64;77.48
15529;BME280;7866;52.280;9.500;2022-12-29T21:58:13;99529.78;;;8.70;77.48
15529;BME280;7866;52.280;9.500;2022-12-29T22:03:32;99525.81;;;8.66;77.34
15529;BME280;7866;52.280;9.500;2022-12-29T22:08:52;99533.53;;;8.60;77.06
15529;BME280;7866;52.280;9.500;2022-12-29T22:14:12;99537.69;;;8.63;76.71
15529;BME280;7866;52.280;9.500;2022-12-29T22:19:13;99533.88;;;8.57;76.85
15529;BME280;7866;52.280;9.500;2022-12-29T22:24:17;99531.41;;;8.56;76.33
15529;BME280;7866;52.280;9.500;2022-12-29T22:29:18;99547.91;;;8.59;77.02
15529;BME280;7866;52.280;9.500;2022-12-29T22:34:20;99549.88;;;8.57;76.99
15529;BME280;7866;52.280;9.500;2022-12-29T22:39:23;99541.25;;;8.55;76.45
15529;BME280;7866;52.280;9.500;2022-12-29T22:44:25;99551.91;;;8.55;76.29
15529;BME280;7866;52.280;9.500;2022-12-29T22:49:27;99551.56;;;8.58;76.71
15529;BME280;7866;52.280;9.500;2022-12-29T22:54:30;99565.25;;;8.55;76.28
15529;BME280;7866;52.280;9.500;2022-12-29T22:59:32;99571.25;;;8.57;76.74
15529;BME280;7866;52.280;9.500;2022-12-29T23:04:34;99563.44;;;8.56;76.68
15529;BME280;7866;52.280;9.500;2022-12-29T23:09:38;99562.31;;;8.50;77.90
15529;BME280;7866;52.280;9.500;2022-12-29T23:14:39;99568.75;;;8.56;77.27
15529;BME280;7866;52.280;9.500;2022-12-29T23:19:41;99583.13;;;8.55;77.60
15529;BME280;7866;52.280;9.500;2022-12-29T23:24:44;99581.75;;;8.59;77.47
15529;BME280;7866;52.280;9.500;2022-12-29T23:29:46;99600.59;;;8.57;77.18
15529;BME280;7866;52.280;9.500;2022-12-29T23:34:47;99593.25;;;8.59;77.23
15529;BME280;7866;52.280;9.500;2022-12-29T23:39:50;99606.13;;;8.56;77.42
15529;BME280;7866;52.280;9.500;2022-12-29T23:44:52;99611.47;;;8.56;76.89
15529;BME280;7866;52.280;9.500;2022-12-29T23:49:54;99600.63;;;8.49;76.94
15529;BME280;7866;52.280;9.500;2022-12-29T23:54:57;99628.63;;;8.53;77.28
15529;BME280;7866;52.280;9.500;2022-12-29T23:59:58;99626.34;;;8.50;77.20
